Time;durP1;ratioP1;P1;durP2;ratioP2;P2;SDS_P1;SDS_P2;PMS_P1;PMS_P2;Temp;Humidity;BMP_temperature;BMP_pressure;BME280_temperature;BME280_humidity;BME280_pressure;Samples;Min_cycle;Max_cycle;Signal;HPM_P1;HPM_P2
2023/08/15 00:00:31;;;;;;;14.48;4.93;;;;;;;;;;5022016;28;20054;-76
2023/08/15 00:02:57;;;;;;;10.05;3.70;;;;;;;;;;5037040;28;20034;-75
2023/08/15 00:05:23;;;;;;;7.65;3.53;;;;;;;;;;5020616;28;20045;-75
2023/08/15 00:07:49;;;;;;;6.47;3.80;;;;;;;;;;5019284;28;20025;-75
2023/08/15 00:10:16;;;;;;;14.57;3.78;;;;;;;;;;5022777;28;20037;-74
2023/08/15 00:12:42;;;;;;;9.50;4.10;;;;;;;;;;5022191;28;20037;-75
2023/08/15 00:15:09;;;;;;;9.15;3.58;;;;;;;;;;5021557;28;20034;-74
2023/08/15 00:17:35;;;;;;;6.50;4.05;;;;;;;;;;5024535;28;20038;-73
2023/08/15 00:20:03;;;;;;;101.82;67.70;;;;;;;;;;5018356;28;20051;-77
2023/08/15 00:22:29;;;;;;;15.25;9.45;;;;;;;;;;5021854;28;20033;-76
2023/08/15 00:24:55;;;;;;;14.20;5.75;;;;;;;;;;5022023;28;20021;-75
2023/08/15 00:27:21;;;;;;;10.35;5.63;;;;;;;;;;5007397;28;20033;-73
2023/08/15 00:29:47;;;;;;;12.43;5.97;;;;;;;;;;5023991;28;20044;-73
2023/08/15 00:32:13;;;;;;;10.38;5.07;;;;;;;;;;5022504;28;20025;-75
2023/08/15 00:34:39;;;;;;;11.73;5.55;;;;;;;;;;5023634;28;20672;-76
2023/08/15 00:37:05;;;;;;;11.45;5.35;;;;;;;;;;5027681;28;20029;-75
2023/08/15 00:39:31;;;;;;;11.68;6.15;;;;;;;;;;5036687;28;20033;-77
2023/08/15 00:41:57;;;;;;;11.65;5.78;;;;;;;;;;5027351;28;20025;-75
2023/08/15 00:44:23;;;;;;;12.35;5.70;;;;;;;;;;5025109;28;20029;-75
2023/08/15 00:46:49;;;;;;;14.48;5.60;;;;;;;;;;5020517;28;20060;-75
2023/08/15 00:49:15;;;;;;;9.57;4.63;;;;;;;;;;5027931;28;20086;-75
2023/08/15 00:51:41;;;;;;;10.25;4.90;;;;;;;;;;5023958;28;20095;-75
2023/08/15 00:54:07;;;;;;;10.48;4.82;;;;;;;;;;5027684;28;20072;-75
2023/08/15 00:56:34;;;;;;;10.48;4.35;;;;;;;;;;5024327;28;20111;-76
2023/08/15 00:59:01;;;;;;;11.95;4.57;;;;;;;;;;5024590;28;20041;-76
2023/08/15 01:01:27;;;;;;;9.00;4.40;;;;;;;;;;5024492;28;20517;-76
2023/08/15 01:03:54;;;;;;;210.30;142.73;;;;;;;;;;5023056;28;20433;-77
2023/08/15 01:06:20;;;;;;;231.38;176.38;;;;;;;;;;5025224;28;20033;-80
2023/08/15 01:08:46;;;;;;;77.97;57.63;;;;;;;;;;5027168;28;20172;-79
2023/08/15 01:11:12;;;;;;;11.45;5.13;;;;;;;;;;5027619;28;20050;-75
2023/08/15 01:13:45;;;;;;;10.43;4.65;;;;;;;;;;5025625;28;20038;-75
2023/08/15 01:16:18;;;;;;;14.52;5.00;;;;;;;;;;5023531;28;20079;-74
2023/08/15 01:18:49;;;;;;;9.95;4.30;;;;;;;;;;5026631;28;20091;-74
2023/08/15 01:21:17;;;;;;;9.63;4.88;;;;;;;;;;5023429;28;20041;-74
2023/08/15 01:23:43;;;;;;;10.25;4.07;;;;;;;;;;5026037;28;20029;-74
2023/08/15 01:26:10;;;;;;;11.65;5.53;;;;;;;;;;5026020;28;20471;-74
2023/08/15 01:28:38;;;;;;;12.20;4.47;;;;;;;;;;5025829;28;20116;-74
2023/08/15 01:31:23;;;;;;;9.93;4.38;;;;;;;;;;5023758;28;20582;-74
2023/08/15 01:33:58;;;;;;;10.93;4.15;;;;;;;;;;5021797;28;20037;-74
2023/08/15 01:36:31;;;;;;;10.93;4.82;;;;;;;;;;5018992;28;20029;-75
2023/08/15 01:39:00;;;;;;;9.65;4.43;;;;;;;;;;5026458;28;20596;-75
2023/08/15 01:41:26;;;;;;;13.38;4.35;;;;;;;;;;5022380;28;20630;-75
2023/08/15 01:43:53;;;;;;;8.68;4.40;;;;;;;;;;5026058;28;20033;-76
2023/08/15 01:46:20;;;;;;;8.77;5.00;;;;;;;;;;5026198;28;20060;-76
2023/08/15 01:48:46;;;;;;;14.05;5.38;;;;;;;;;;5025128;28;20060;-75
2023/08/15 01:51:12;;;;;;;12.15;5.13;;;;;;;;;;5024043;28;20045;-76
2023/08/15 01:53:38;;;;;;;12.60;5.18;;;;;;;;;;5022716;28;20036;-75
2023/08/15 01:56:05;;;;;;;12.85;5.03;;;;;;;;;;5019211;28;20041;-75
2023/08/15 01:58:31;;;;;;;14.23;5.65;;;;;;;;;;5025592;28;20033;-77
2023/08/15 02:00:58;;;;;;;12.55;5.88;;;;;;;;;;5023861;28;20049;-76
2023/08/15 02:03:25;;;;;;;13.00;6.45;;;;;;;;;;5026593;28;20029;-75
2023/08/15 02:05:51;;;;;;;9.70;5.38;;;;;;;;;;5024145;28;20036;-75
2023/08/15 02:08:17;;;;;;;10.05;5.07;;;;;;;;;;5023343;28;20026;-76
2023/08/15 02:10:43;;;;;;;14.98;5.82;;;;;;;;;;5025062;28;20033;-76
2023/08/15 02:13:09;;;;;;;15.13;6.22;;;;;;;;;;5025480;28;20029;-76
2023/08/15 02:15:35;;;;;;;17.05;6.38;;;;;;;;;;5024998;28;20111;-75
2023/08/15 02:18:01;;;;;;;14.77;5.97;;;;;;;;;;5025713;28;20037;-74
2023/08/15 02:20:27;;;;;;;10.52;5.30;;;;;;;;;;5025645;28;20037;-74
2023/08/15 02:22:53;;;;;;;12.75;5.90;;;;;;;;;;5018655;28;20041;-75
2023/08/15 02:25:19;;;;;;;12.02;5.22;;;;;;;;;;5021545;28;20032;-75
2023/08/15 02:27:45;;;;;;;12.43;5.78;;;;;;;;;;5026447;28;20033;-75
2023/08/15 02:30:11;;;;;;;9.98;5.95;;;;;;;;;;5024923;28;20109;-75
2023/08/15 02:32:37;;;;;;;9.88;5.13;;;;;;;;;;5025334;28;20100;-74
2023/08/15 02:35:04;;;;;;;8.82;4.97;;;;;;;;;;5024317;28;20028;-74
2023/08/15 02:37:30;;;;;;;10.57;5.22;;;;;;;;;;5023548;28;20041;-74
2023/08/15 02:39:56;;;;;;;7.00;4.97;;;;;;;;;;5024947;28;20529;-74
2023/08/15 02:42:22;;;;;;;13.05;5.35;;;;;;;;;;5022473;28;20092;-73
2023/08/15 02:44:48;;;;;;;10.60;4.88;;;;;;;;;;5024752;28;20035;-74
2023/08/15 02:47:14;;;;;;;9.50;5.30;;;;;;;;;;5021644;28;20029;-75
2023/08/15 02:49:40;;;;;;;8.50;5.30;;;;;;;;;;5024499;28;20089;-75
2023/08/15 02:52:06;;;;;;;12.02;5.45;;;;;;;;;;5023374;28;20038;-75
2023/08/15 02:54:32;;;;;;;7.82;4.72;;;;;;;;;;5023277;28;20029;-75
2023/08/15 02:56:58;;;;;;;10.88;5.70;;;;;;;;;;5021355;28;20095;-75
2023/08/15 02:59:24;;;;;;;10.15;5.00;;;;;;;;;;5022604;28;20151;-75
2023/08/15 03:01:50;;;;;;;9.07;5.32;;;;;;;;;;5020736;28;20049;-75
2023/08/15 03:04:16;;;;;;;8.43;5.30;;;;;;;;;;5026120;28;20041;-75
2023/08/15 03:06:42;;;;;;;10.38;5.72;;;;;;;;;;5022007;28;20498;-75
2023/08/15 03:09:08;;;;;;;12.05;6.30;;;;;;;;;;5025177;28;20112;-74
2023/08/15 03:11:34;;;;;;;7.38;5.07;;;;;;;;;;5037531;28;20041;-74
2023/08/15 03:14:00;;;;;;;8.43;5.38;;;;;;;;;;5020565;28;20644;-74
2023/08/15 03:16:27;;;;;;;7.53;5.00;;;;;;;;;;5023413;28;20073;-75
2023/08/15 03:18:53;;;;;;;7.45;4.63;;;;;;;;;;5019044;28;20032;-74
2023/08/15 03:21:20;;;;;;;9.90;5.70;;;;;;;;;;5022001;28;20060;-74
2023/08/15 03:23:46;;;;;;;9.27;5.65;;;;;;;;;;5025545;28;20060;-75
2023/08/15 03:26:12;;;;;;;13.40;6.47;;;;;;;;;;5023501;28;20061;-75
2023/08/15 03:28:38;;;;;;;14.07;6.82;;;;;;;;;;5022493;28;20026;-75
2023/08/15 03:31:08;;;;;;;12.15;6.43;;;;;;;;;;5025319;28;20049;-74
2023/08/15 03:33:34;;;;;;;11.15;6.45;;;;;;;;;;5023761;28;20033;-75
2023/08/15 03:36:01;;;;;;;9.80;6.13;;;;;;;;;;5021512;28;20668;-74
2023/08/15 03:38:27;;;;;;;15.07;7.03;;;;;;;;;;5025401;28;20034;-75
2023/08/15 03:41:03;;;;;;;10.57;6.57;;;;;;;;;;5024298;28;20033;-74
2023/08/15 03:43:29;;;;;;;10.57;6.80;;;;;;;;;;5026164;28;20487;-75
2023/08/15 03:45:56;;;;;;;10.70;6.20;;;;;;;;;;5024491;28;20090;-75
2023/08/15 03:48:22;;;;;;;14.70;6.35;;;;;;;;;;5025172;28;20065;-75
2023/08/15 03:50:48;;;;;;;11.48;6.07;;;;;;;;;;5025160;28;20025;-75
2023/08/15 03:53:14;;;;;;;13.55;6.20;;;;;;;;;;5019968;28;20120;-75
2023/08/15 03:55:40;;;;;;;15.02;7.22;;;;;;;;;;5024149;28;20136;-75
2023/08/15 03:58:06;;;;;;;13.52;6.80;;;;;;;;;;5025360;28;20144;-75
2023/08/15 04:00:32;;;;;;;11.82;6.75;;;;;;;;;;5018359;28;20599;-75
2023/08/15 04:02:58;;;;;;;10.35;6.80;;;;;;;;;;5022351;28;20033;-75
2023/08/15 04:05:24;;;;;;;12.52;6.82;;;;;;;;;;5019689;28;20045;-75
2023/08/15 04:07:50;;;;;;;14.20;6.85;;;;;;;;;;5018405;28;20025;-75
2023/08/15 04:10:17;;;;;;;10.13;6.80;;;;;;;;;;5041837;28;20033;-75
2023/08/15 04:12:44;;;;;;;10.40;7.07;;;;;;;;;;5025031;28;20044;-76
2023/08/15 04:15:10;;;;;;;10.25;7.10;;;;;;;;;;5026948;28;20038;-75
2023/08/15 04:17:37;;;;;;;11.10;6.88;;;;;;;;;;5025081;28;20029;-75
2023/08/15 04:20:07;;;;;;;11.30;7.63;;;;;;;;;;5027142;28;20069;-75
2023/08/15 04:22:33;;;;;;;11.85;6.78;;;;;;;;;;5025699;28;20084;-75
2023/08/15 04:24:59;;;;;;;13.52;7.28;;;;;;;;;;5025155;28;20602;-75
2023/08/15 04:27:25;;;;;;;18.25;7.43;;;;;;;;;;5021841;28;20026;-75
2023/08/15 04:29:51;;;;;;;10.73;7.43;;;;;;;;;;5026264;28;20049;-75
2023/08/15 04:32:17;;;;;;;14.07;6.53;;;;;;;;;;5026125;28;20618;-75
2023/08/15 04:34:43;;;;;;;11.90;6.53;;;;;;;;;;5024691;28;20044;-75
2023/08/15 04:37:09;;;;;;;14.82;7.78;;;;;;;;;;5030323;28;20038;-76
2023/08/15 04:39:35;;;;;;;17.88;6.95;;;;;;;;;;5007523;28;20056;-75
2023/08/15 04:42:01;;;;;;;13.88;6.95;;;;;;;;;;5023851;28;20183;-75
2023/08/15 04:44:27;;;;;;;11.27;6.45;;;;;;;;;;5023842;28;20026;-75
2023/08/15 04:46:53;;;;;;;10.65;6.43;;;;;;;;;;5027087;28;20099;-75
2023/08/15 04:49:19;;;;;;;11.32;6.28;;;;;;;;;;5023654;28;20052;-75
2023/08/15 04:51:45;;;;;;;7.40;5.68;;;;;;;;;;5023302;28;20033;-75
2023/08/15 04:54:11;;;;;;;13.30;6.35;;;;;;;;;;5025365;28;20037;-75
2023/08/15 04:56:37;;;;;;;14.30;6.55;;;;;;;;;;5026204;28;20034;-75
2023/08/15 04:59:03;;;;;;;11.48;6.25;;;;;;;;;;5025053;28;20029;-75
2023/08/15 05:01:29;;;;;;;14.75;7.70;;;;;;;;;;5025836;28;20049;-75
2023/08/15 05:03:55;;;;;;;14.60;6.75;;;;;;;;;;5023113;28;20048;-74
2023/08/15 05:06:21;;;;;;;12.20;6.25;;;;;;;;;;5022191;28;20124;-76
2023/08/15 05:08:48;;;;;;;11.85;7.45;;;;;;;;;;5017881;28;20113;-75
2023/08/15 05:11:14;;;;;;;10.93;6.45;;;;;;;;;;5023844;28;20043;-75
2023/08/15 05:13:40;;;;;;;10.68;6.65;;;;;;;;;;5021463;28;20033;-75
2023/08/15 05:16:06;;;;;;;13.85;7.25;;;;;;;;;;5023469;28;20033;-75
2023/08/15 05:18:32;;;;;;;14.00;6.68;;;;;;;;;;5025897;28;20033;-74
2023/08/15 05:20:58;;;;;;;11.00;5.97;;;;;;;;;;5024693;28;20515;-75
2023/08/15 05:23:24;;;;;;;12.15;5.93;;;;;;;;;;5023447;28;20034;-74
2023/08/15 05:25:50;;;;;;;11.52;5.70;;;;;;;;;;5023275;28;20034;-74
2023/08/15 05:28:16;;;;;;;13.40;5.78;;;;;;;;;;5023226;28;20041;-74
2023/08/15 05:30:43;;;;;;;12.68;5.60;;;;;;;;;;5022755;28;20179;-77
2023/08/15 05:33:09;;;;;;;12.70;5.20;;;;;;;;;;5018735;28;20018;-80
2023/08/15 05:35:35;;;;;;;11.75;4.72;;;;;;;;;;5020454;28;20064;-80
2023/08/15 05:38:01;;;;;;;11.82;4.30;;;;;;;;;;5020304;28;20479;-78
2023/08/15 05:40:27;;;;;;;12.70;4.45;;;;;;;;;;5023126;28;20204;-80
2023/08/15 05:42:53;;;;;;;10.80;5.18;;;;;;;;;;5027951;28;20033;-82
2023/08/15 05:45:19;;;;;;;63.33;34.08;;;;;;;;;;5026885;28;20030;-83
2023/08/15 05:47:45;;;;;;;14.15;5.03;;;;;;;;;;5016558;28;20790;-79
2023/08/15 05:50:11;;;;;;;10.07;3.63;;;;;;;;;;5027224;28;20048;-79
2023/08/15 05:52:38;;;;;;;10.02;3.92;;;;;;;;;;5014825;28;20026;-76
2023/08/15 05:55:04;;;;;;;11.85;3.28;;;;;;;;;;5024465;28;20041;-79
2023/08/15 05:57:30;;;;;;;6.20;3.20;;;;;;;;;;5023388;28;20075;-78
2023/08/15 05:59:56;;;;;;;13.23;4.05;;;;;;;;;;5023455;28;20041;-79
2023/08/15 06:02:22;;;;;;;9.40;3.42;;;;;;;;;;5021028;28;20038;-77
2023/08/15 06:04:48;;;;;;;9.85;4.13;;;;;;;;;;5020743;28;21658;-77
2023/08/15 06:07:14;;;;;;;14.15;4.18;;;;;;;;;;5017315;28;20420;-79
2023/08/15 06:09:40;;;;;;;16.63;5.15;;;;;;;;;;5020029;28;20037;-80
2023/08/15 06:12:06;;;;;;;13.90;4.53;;;;;;;;;;5023888;28;20113;-78
2023/08/15 06:14:33;;;;;;;16.02;3.72;;;;;;;;;;5024402;28;20033;-79
2023/08/15 06:16:59;;;;;;;11.15;3.20;;;;;;;;;;5020347;28;20037;-78
2023/08/15 06:19:25;;;;;;;9.02;2.95;;;;;;;;;;5014847;28;20384;-74
2023/08/15 06:21:51;;;;;;;15.52;4.30;;;;;;;;;;5021265;28;20042;-74
2023/08/15 06:24:17;;;;;;;13.02;3.53;;;;;;;;;;5021683;28;20038;-74
2023/08/15 06:26:43;;;;;;;8.52;3.22;;;;;;;;;;5023705;28;20028;-75
2023/08/15 06:29:09;;;;;;;10.60;3.22;;;;;;;;;;5027274;28;20013;-75
2023/08/15 06:31:36;;;;;;;13.48;3.97;;;;;;;;;;5027516;28;20032;-76
2023/08/15 06:34:02;;;;;;;17.98;8.55;;;;;;;;;;5022878;28;20026;-75
2023/08/15 06:36:29;;;;;;;22.23;8.98;;;;;;;;;;5022572;28;20042;-76
2023/08/15 06:38:55;;;;;;;13.40;3.63;;;;;;;;;;5019148;28;20044;-81
2023/08/15 06:41:21;;;;;;;15.48;4.15;;;;;;;;;;5021228;28;20049;-79
2023/08/15 06:43:47;;;;;;;19.40;3.65;;;;;;;;;;5023924;28;20034;-80
2023/08/15 06:46:14;;;;;;;12.93;3.33;;;;;;;;;;5017907;28;20602;-79
2023/08/15 06:48:40;;;;;;;14.25;4.07;;;;;;;;;;5036895;28;20052;-80
2023/08/15 06:51:06;;;;;;;15.68;3.80;;;;;;;;;;5021041;28;20040;-79
2023/08/15 06:53:32;;;;;;;13.32;3.80;;;;;;;;;;5022473;28;20022;-80
2023/08/15 06:55:58;;;;;;;15.32;3.83;;;;;;;;;;5023975;28;20025;-76
2023/08/15 06:58:26;;;;;;;12.00;3.33;;;;;;;;;;5022421;28;20041;-80
2023/08/15 07:00:52;;;;;;;9.88;2.88;;;;;;;;;;5022358;28;20056;-76
2023/08/15 07:03:18;;;;;;;10.95;2.55;;;;;;;;;;5026427;28;20026;-76
2023/08/15 07:05:44;;;;;;;15.25;4.07;;;;;;;;;;5037527;28;20442;-76
2023/08/15 07:08:12;;;;;;;10.40;3.17;;;;;;;;;;5023255;28;20060;-79
2023/08/15 07:10:39;;;;;;;12.18;3.35;;;;;;;;;;5020763;28;20028;-80
2023/08/15 07:13:05;;;;;;;14.60;2.78;;;;;;;;;;5018407;28;20464;-79
2023/08/15 07:15:31;;;;;;;8.07;2.38;;;;;;;;;;5027811;28;20087;-79
2023/08/15 07:17:57;;;;;;;13.13;2.75;;;;;;;;;;5027493;28;20033;-79
2023/08/15 07:20:24;;;;;;;15.80;3.72;;;;;;;;;;5025216;28;20042;-78
2023/08/15 07:22:50;;;;;;;10.75;2.55;;;;;;;;;;5032423;28;20029;-78
2023/08/15 07:25:16;;;;;;;10.80;3.70;;;;;;;;;;5033819;28;20055;-77
2023/08/15 07:27:42;;;;;;;13.68;3.08;;;;;;;;;;5028130;28;20045;-80
2023/08/15 07:30:11;;;;;;;13.38;3.00;;;;;;;;;;5022397;28;20028;-78
2023/08/15 07:32:37;;;;;;;6.05;2.28;;;;;;;;;;5027588;28;20030;-78
2023/08/15 07:35:04;;;;;;;13.68;2.85;;;;;;;;;;5042826;28;20094;-79
2023/08/15 07:37:31;;;;;;;10.35;2.88;;;;;;;;;;5036898;28;20599;-79
2023/08/15 07:39:58;;;;;;;19.48;4.90;;;;;;;;;;5028268;28;20422;-78
2023/08/15 07:42:25;;;;;;;9.80;2.97;;;;;;;;;;5032794;28;20022;-78
2023/08/15 07:44:51;;;;;;;8.75;2.50;;;;;;;;;;5032132;28;20524;-78
2023/08/15 07:47:17;;;;;;;11.55;2.60;;;;;;;;;;5021942;28;20117;-79
2023/08/15 07:49:43;;;;;;;10.48;3.17;;;;;;;;;;5017760;28;20049;-79
2023/08/15 07:52:09;;;;;;;7.22;2.60;;;;;;;;;;5028818;28;20025;-80
2023/08/15 07:54:36;;;;;;;8.85;2.40;;;;;;;;;;5023186;28;20034;-79
2023/08/15 07:57:02;;;;;;;8.60;2.38;;;;;;;;;;5030471;28;20033;-80
2023/08/15 07:59:28;;;;;;;6.28;2.42;;;;;;;;;;5031189;28;20025;-80
2023/08/15 08:01:54;;;;;;;6.32;1.70;;;;;;;;;;5027565;28;20496;-80
2023/08/15 08:04:20;;;;;;;8.80;1.88;;;;;;;;;;5029233;28;20101;-81
2023/08/15 08:06:46;;;;;;;9.02;2.13;;;;;;;;;;5021287;28;20112;-79
2023/08/15 08:09:12;;;;;;;8.02;1.67;;;;;;;;;;5051734;28;20035;-80
2023/08/15 08:11:38;;;;;;;11.02;2.30;;;;;;;;;;5052073;28;20084;-79
2023/08/15 08:14:04;;;;;;;8.30;1.98;;;;;;;;;;5043077;28;20037;-78
2023/08/15 08:16:30;;;;;;;4.07;1.65;;;;;;;;;;5019710;28;20026;-79
2023/08/15 08:18:56;;;;;;;8.43;2.00;;;;;;;;;;5029442;28;20052;-77
2023/08/15 08:21:22;;;;;;;8.63;2.03;;;;;;;;;;5029054;28;20447;-77
2023/08/15 08:23:49;;;;;;;7.72;1.90;;;;;;;;;;5030624;28;20032;-77
2023/08/15 08:26:15;;;;;;;8.65;2.28;;;;;;;;;;5031294;28;20040;-77
2023/08/15 08:28:41;;;;;;;9.57;1.92;;;;;;;;;;5030311;28;20511;-77
2023/08/15 08:31:07;;;;;;;5.95;1.40;;;;;;;;;;5029988;28;20048;-77
2023/08/15 08:33:33;;;;;;;4.05;1.35;;;;;;;;;;5011507;28;20058;-79
2023/08/15 08:35:59;;;;;;;7.22;2.03;;;;;;;;;;5042317;28;20068;-78
2023/08/15 08:38:25;;;;;;;5.82;1.58;;;;;;;;;;5030213;28;20448;-78
2023/08/15 08:40:54;;;;;;;8.27;1.60;;;;;;;;;;5030526;28;20073;-77
2023/08/15 08:43:21;;;;;;;4.35;1.20;;;;;;;;;;5011875;28;20034;-77
2023/08/15 08:45:51;;;;;;;2.97;0.95;;;;;;;;;;5017708;28;20030;-77
2023/08/15 08:48:18;;;;;;;5.20;1.75;;;;;;;;;;5030335;28;20056;-78
2023/08/15 08:50:45;;;;;;;5.68;1.98;;;;;;;;;;5043693;28;20038;-78
2023/08/15 08:53:11;;;;;;;5.53;1.70;;;;;;;;;;5030176;28;20391;-78
2023/08/15 08:55:37;;;;;;;4.60;1.85;;;;;;;;;;5030676;28;20029;-79
2023/08/15 08:58:04;;;;;;;5.00;1.23;;;;;;;;;;5031108;28;20032;-80
2023/08/15 09:00:34;;;;;;;5.57;1.63;;;;;;;;;;5036230;28;20037;-75
2023/08/15 09:03:00;;;;;;;8.23;1.40;;;;;;;;;;5022048;28;20033;-73
2023/08/15 09:05:27;;;;;;;4.80;1.25;;;;;;;;;;5025556;28;20045;-73
2023/08/15 09:07:53;;;;;;;5.85;1.88;;;;;;;;;;5025037;28;20041;-73
2023/08/15 09:10:21;;;;;;;6.70;1.83;;;;;;;;;;5027483;28;20025;-73
2023/08/15 09:12:48;;;;;;;5.68;1.33;;;;;;;;;;5029232;28;20053;-76
2023/08/15 09:15:14;;;;;;;6.13;1.90;;;;;;;;;;5022706;28;20467;-77
2023/08/15 09:17:40;;;;;;;5.38;1.60;;;;;;;;;;5023953;28;20491;-81
2023/08/15 09:20:13;;;;;;;4.45;1.70;;;;;;;;;;5017921;28;20403;-78
2023/08/15 09:22:41;;;;;;;6.65;1.52;;;;;;;;;;5021652;28;20099;-77
2023/08/15 09:25:07;;;;;;;4.72;1.15;;;;;;;;;;5018584;28;20494;-75
2023/08/15 09:27:34;;;;;;;7.85;2.10;;;;;;;;;;5020393;28;20044;-78
2023/08/15 09:30:13;;;;;;;8.90;1.80;;;;;;;;;;5024729;28;20514;-78
2023/08/15 09:32:40;;;;;;;5.68;1.40;;;;;;;;;;5024294;28;20187;-78
2023/08/15 09:35:06;;;;;;;6.05;1.40;;;;;;;;;;5025450;28;20033;-77
2023/08/15 09:37:32;;;;;;;4.50;1.42;;;;;;;;;;5028413;28;20094;-76
2023/08/15 09:39:58;;;;;;;6.40;1.52;;;;;;;;;;5029029;28;20033;-76
2023/08/15 09:42:24;;;;;;;7.93;1.75;;;;;;;;;;5026991;28;20032;-78
2023/08/15 09:44:50;;;;;;;5.95;1.73;;;;;;;;;;5028390;28;20033;-78
2023/08/15 09:47:19;;;;;;;7.25;1.95;;;;;;;;;;5027798;28;20104;-77
2023/08/15 09:49:46;;;;;;;6.05;1.80;;;;;;;;;;5017320;28;20187;-75
2023/08/15 09:52:13;;;;;;;8.60;1.63;;;;;;;;;;5025097;28;20030;-74
2023/08/15 09:54:41;;;;;;;5.55;2.85;;;;;;;;;;5020988;28;20026;-73
2023/08/15 09:57:07;;;;;;;17.25;13.55;;;;;;;;;;5023811;28;20068;-72
2023/08/15 09:59:33;;;;;;;5.70;1.67;;;;;;;;;;5023652;28;20029;-76
2023/08/15 10:02:00;;;;;;;6.13;1.45;;;;;;;;;;5017093;28;20048;-80
2023/08/15 10:04:28;;;;;;;3.65;1.15;;;;;;;;;;5022157;28;20064;-75
2023/08/15 10:06:55;;;;;;;6.40;1.80;;;;;;;;;;5020182;28;20041;-79
2023/08/15 10:09:23;;;;;;;8.30;1.70;;;;;;;;;;5021693;28;20044;-79
2023/08/15 10:11:50;;;;;;;6.90;1.95;;;;;;;;;;5021117;28;20041;-76
2023/08/15 10:14:18;;;;;;;7.18;1.67;;;;;;;;;;5018276;28;20030;-77
2023/08/15 10:16:44;;;;;;;4.72;1.30;;;;;;;;;;5022860;28;20040;-76
2023/08/15 10:19:16;;;;;;;3.90;1.02;;;;;;;;;;5021545;28;20029;-77
2023/08/15 10:21:42;;;;;;;;;;;;;;;;;;5025497;28;20037;-76
2023/08/15 10:24:09;;;;;;;4.75;1.30;;;;;;;;;;5019229;28;19936;-74
2023/08/15 10:26:35;;;;;;;3.70;1.10;;;;;;;;;;5023801;28;20108;-77
2023/08/15 10:29:02;;;;;;;4.75;1.20;;;;;;;;;;5018728;28;20036;-74
2023/08/15 10:31:38;;;;;;;3.53;1.20;;;;;;;;;;5024909;28;20041;-75
2023/08/15 10:34:05;;;;;;;2.75;1.40;;;;;;;;;;5021939;28;20045;-76
2023/08/15 10:36:31;;;;;;;5.45;1.40;;;;;;;;;;5023442;28;20036;-73
2023/08/15 10:38:57;;;;;;;7.35;1.40;;;;;;;;;;5023641;28;20052;-75
2023/08/15 10:41:23;;;;;;;5.30;1.13;;;;;;;;;;5024065;28;20065;-75
2023/08/15 10:43:50;;;;;;;4.18;1.55;;;;;;;;;;5014621;28;20084;-77
2023/08/15 10:46:20;;;;;;;11.48;5.13;;;;;;;;;;5022045;28;20132;-77
2023/08/15 10:48:50;;;;;;;7.30;1.30;;;;;;;;;;5021147;28;20058;-75
2023/08/15 10:51:21;;;;;;;2.28;0.82;;;;;;;;;;5018698;28;20112;-84
2023/08/15 10:53:48;;;;;;;7.80;1.67;;;;;;;;;;5020224;28;20227;-86
2023/08/15 10:56:15;;;;;;;3.30;1.00;;;;;;;;;;5024302;28;20099;-86
2023/08/15 10:58:41;;;;;;;6.00;1.20;;;;;;;;;;5034889;28;20040;-78
2023/08/15 11:01:07;;;;;;;6.03;1.15;;;;;;;;;;5032257;28;20034;-78
2023/08/15 11:03:34;;;;;;;4.32;1.02;;;;;;;;;;5032877;28;20032;-78
2023/08/15 11:06:11;;;;;;;5.60;1.63;;;;;;;;;;5026854;28;20489;-77
2023/08/15 11:08:44;;;;;;;4.05;1.25;;;;;;;;;;5023671;28;21024;-77
2023/08/15 11:11:11;;;;;;;5.80;1.42;;;;;;;;;;5027512;28;20096;-78
2023/08/15 11:13:38;;;;;;;4.15;1.23;;;;;;;;;;5024957;28;20037;-77
2023/08/15 11:16:04;;;;;;;9.05;1.20;;;;;;;;;;5022094;28;20517;-77
2023/08/15 11:18:30;;;;;;;3.90;1.25;;;;;;;;;;5027047;28;20173;-77
2023/08/15 11:20:56;;;;;;;3.88;1.35;;;;;;;;;;5021051;28;20072;-76
2023/08/15 11:23:22;;;;;;;5.78;1.42;;;;;;;;;;5039861;28;20041;-77
2023/08/15 11:25:49;;;;;;;4.32;1.40;;;;;;;;;;5023370;28;20088;-77
2023/08/15 11:28:15;;;;;;;7.57;2.75;;;;;;;;;;5025494;28;20278;-77
2023/08/15 11:30:41;;;;;;;4.15;1.33;;;;;;;;;;5037752;28;20095;-77
2023/08/15 11:33:07;;;;;;;5.45;1.45;;;;;;;;;;5027802;28;20064;-78
2023/08/15 11:35:33;;;;;;;8.00;1.92;;;;;;;;;;5000347;28;20033;-77
2023/08/15 11:38:02;;;;;;;5.03;1.40;;;;;;;;;;5030353;28;20037;-77
2023/08/15 11:40:30;;;;;;;6.93;1.23;;;;;;;;;;5026770;28;20120;-77
2023/08/15 11:42:56;;;;;;;6.85;1.50;;;;;;;;;;5023530;28;20034;-77
2023/08/15 11:45:23;;;;;;;7.47;1.40;;;;;;;;;;5026678;28;20064;-78
2023/08/15 11:47:56;;;;;;;5.13;1.38;;;;;;;;;;5024538;28;20040;-77
2023/08/15 11:50:23;;;;;;;6.95;1.65;;;;;;;;;;5026341;28;20565;-78
2023/08/15 11:52:49;;;;;;;6.97;1.70;;;;;;;;;;5026457;28;20068;-78
2023/08/15 11:55:18;;;;;;;9.27;2.55;;;;;;;;;;5020387;28;20038;-78
2023/08/15 11:57:44;;;;;;;8.23;1.50;;;;;;;;;;5018582;28;20494;-79
2023/08/15 12:00:11;;;;;;;8.57;2.17;;;;;;;;;;5040074;28;20080;-79
2023/08/15 12:02:43;;;;;;;8.27;2.13;;;;;;;;;;5026382;28;20480;-78
2023/08/15 12:05:10;;;;;;;4.45;1.55;;;;;;;;;;5023828;28;20475;-79
2023/08/15 12:07:36;;;;;;;6.93;1.55;;;;;;;;;;5026842;28;20484;-78
2023/08/15 12:10:02;;;;;;;7.53;1.33;;;;;;;;;;5026240;28;20067;-81
2023/08/15 12:12:28;;;;;;;8.13;1.42;;;;;;;;;;5027764;28;20037;-80
2023/08/15 12:14:54;;;;;;;5.22;1.70;;;;;;;;;;5025410;28;20024;-80
2023/08/15 12:17:20;;;;;;;6.22;1.80;;;;;;;;;;5024716;28;20386;-79
2023/08/15 12:19:46;;;;;;;3.80;1.42;;;;;;;;;;5023797;28;20068;-80
2023/08/15 12:22:12;;;;;;;4.35;1.67;;;;;;;;;;5024924;28;20080;-80
2023/08/15 12:24:38;;;;;;;6.97;2.05;;;;;;;;;;5026139;28;20536;-80
2023/08/15 12:27:05;;;;;;;4.80;1.52;;;;;;;;;;5019557;28;20114;-78
2023/08/15 12:29:31;;;;;;;3.85;1.20;;;;;;;;;;5030552;28;20052;-79
2023/08/15 12:31:57;;;;;;;6.50;1.67;;;;;;;;;;5029811;28;20037;-84
2023/08/15 12:34:23;;;;;;;6.38;1.73;;;;;;;;;;5029994;28;20038;-83
2023/08/15 12:36:49;;;;;;;3.50;1.25;;;;;;;;;;5024963;28;20487;-76
2023/08/15 12:39:17;;;;;;;6.22;2.53;;;;;;;;;;5018715;28;20046;-81
2023/08/15 12:41:43;;;;;;;6.38;1.70;;;;;;;;;;5025443;28;20042;-80
2023/08/15 12:44:09;;;;;;;5.10;1.63;;;;;;;;;;5017713;28;20180;-83
2023/08/15 12:46:35;;;;;;;8.27;1.92;;;;;;;;;;5022936;28;20120;-85
2023/08/15 12:49:02;;;;;;;4.05;1.60;;;;;;;;;;5009930;28;20407;-80
2023/08/15 12:51:28;;;;;;;8.48;1.75;;;;;;;;;;5026204;28;20442;-84
2023/08/15 12:53:54;;;;;;;5.35;1.90;;;;;;;;;;5022811;28;20040;-80
2023/08/15 12:56:20;;;;;;;4.75;1.20;;;;;;;;;;5018308;28;20208;-81
2023/08/15 12:58:46;;;;;;;5.05;1.70;;;;;;;;;;5025029;28;20036;-82
2023/08/15 13:01:12;;;;;;;6.18;1.83;;;;;;;;;;5021723;28;20037;-83
2023/08/15 13:03:38;;;;;;;6.53;1.50;;;;;;;;;;5018068;28;20272;-80
2023/08/15 13:06:04;;;;;;;19.77;13.25;;;;;;;;;;5027029;28;20068;-79
2023/08/15 13:08:30;;;;;;;9.90;4.13;;;;;;;;;;5025495;28;20033;-79
2023/08/15 13:10:56;;;;;;;3.28;1.67;;;;;;;;;;5026304;28;20052;-78
2023/08/15 13:13:23;;;;;;;3.28;1.55;;;;;;;;;;5025869;28;20083;-74
2023/08/15 13:15:50;;;;;;;5.55;1.65;;;;;;;;;;5022739;28;20710;-73
2023/08/15 13:18:16;;;;;;;7.63;1.83;;;;;;;;;;5026761;28;20029;-73
2023/08/15 13:20:42;;;;;;;7.70;1.80;;;;;;;;;;5020681;28;20068;-75
2023/08/15 13:23:08;;;;;;;7.35;2.17;;;;;;;;;;5042189;28;20095;-74
2023/08/15 13:25:34;;;;;;;4.60;2.17;;;;;;;;;;5028334;28;20032;-72
2023/08/15 13:28:00;;;;;;;5.80;2.30;;;;;;;;;;5029539;28;20065;-72
2023/08/15 13:30:27;;;;;;;6.57;2.70;;;;;;;;;;5029128;28;20406;-74
2023/08/15 13:32:53;;;;;;;4.68;1.60;;;;;;;;;;5030920;28;20369;-73
2023/08/15 13:35:19;;;;;;;6.15;2.20;;;;;;;;;;5029460;28;20030;-73
2023/08/15 13:37:45;;;;;;;10.05;2.10;;;;;;;;;;5027141;28;20038;-73
2023/08/15 13:40:11;;;;;;;5.35;1.83;;;;;;;;;;5028144;28;20022;-73
2023/08/15 13:42:39;;;;;;;4.88;1.75;;;;;;;;;;5028746;28;20033;-73
2023/08/15 13:45:05;;;;;;;7.10;2.15;;;;;;;;;;5027854;28;20025;-73
2023/08/15 13:47:31;;;;;;;5.18;1.67;;;;;;;;;;5027548;28;20156;-75
2023/08/15 13:49:57;;;;;;;9.07;2.10;;;;;;;;;;5044262;28;20053;-73
2023/08/15 13:52:23;;;;;;;5.50;1.90;;;;;;;;;;5028695;28;20038;-73
2023/08/15 13:54:49;;;;;;;7.10;1.83;;;;;;;;;;5028376;28;20495;-74
2023/08/15 13:57:15;;;;;;;7.53;2.28;;;;;;;;;;5027706;28;20034;-72
2023/08/15 13:59:41;;;;;;;5.10;1.50;;;;;;;;;;5030995;28;20049;-75
2023/08/15 14:02:07;;;;;;;6.90;1.92;;;;;;;;;;5027734;28;20037;-73
2023/08/15 14:04:33;;;;;;;5.05;1.63;;;;;;;;;;5028862;28;20112;-72
2023/08/15 14:06:59;;;;;;;5.10;1.60;;;;;;;;;;5029142;28;20549;-73
2023/08/15 14:09:25;;;;;;;7.43;1.27;;;;;;;;;;5028059;28;20033;-74
2023/08/15 14:11:51;;;;;;;5.32;1.10;;;;;;;;;;5017896;28;20045;-74
2023/08/15 14:14:17;;;;;;;5.75;1.55;;;;;;;;;;5025071;28;20040;-73
2023/08/15 14:16:43;;;;;;;7.22;1.23;;;;;;;;;;5024631;28;20068;-74
2023/08/15 14:19:13;;;;;;;2.75;1.38;;;;;;;;;;5043503;28;20092;-74
2023/08/15 14:21:39;;;;;;;3.40;1.45;;;;;;;;;;5028103;28;20091;-73
2023/08/15 14:24:05;;;;;;;2.55;1.02;;;;;;;;;;5029005;28;20032;-74
2023/08/15 14:26:31;;;;;;;2.45;0.90;;;;;;;;;;5028464;28;20041;-73
2023/08/15 14:28:57;;;;;;;5.38;1.30;;;;;;;;;;5028594;28;20453;-73
2023/08/15 14:31:23;;;;;;;3.65;1.40;;;;;;;;;;5024913;28;20068;-73
2023/08/15 14:33:49;;;;;;;3.05;1.00;;;;;;;;;;5029285;28;20033;-72